Solovki, Russia
Current Conditions -  °F | °C
As of 1:00 PM on Thursday 29 Jan 2015 (Local Time) from ULAA Reporting Station
Snow Showers Snow Showers  
Wind Chill: 20°   Ceiling: 900
Heat Index: 28°   Visibility: 1.4mi
Dew Point: 28°   Wind: 9mph
Humidity: 100%   Direction: 250°WSW
Pressure: 29.26"   Gusts: 16mph
Location:  65.2°N, 35.3°E
Report Text: ULAA 291000Z 25004G07MPS 210V280 2300 -SHSN OVC009CB M02/M02 Q0991 TEMPO 0600 +SHSN BLSN BKN003CB RMK QFE742/0989 SC037
Loading
Personal Weather Stations






























Interactive Weather Map New forecast layout! Learn more

10-Day Weather Forecast

Advertisements
Track Severe Weather on mobile